Mh2 Luar — CSHC2 — position and weather

sailwx.info

Track history (hours):
 
Tides and Currents Weather Stations Pressure Air Temp Water Temp Dewpoint Dewpoint Depression Visibility Wind Speed Wind Dir Waves Ship Positions

Mh2 Luar

Last reported at 2017-Sep-24 10:29 UTC. Time now 2017-Sep-24 10:39 UTC.
Position N 38°42' W 009°11'.

Type: Passenger vessel. MMSI: 263753590.

Date/timePositionNaut miles runAvg speedWind from/ knotsBaromVisibWave heightAir tempDewpointWater temp
2017-Sep-24 10:29N 38°42' W 009°11'1 2.1
2017-Sep-24 09:51N 38°42' W 009°09'2 5.0
2017-Sep-24 09:25N 38°42' W 009°12'1 1.3
2017-Sep-24 08:54N 38°42' W 009°11'0 0.5
2017-Sep-24 08:23N 38°42' W 009°11'0 0.0
2017-Sep-24 07:59N 38°42' W 009°11'0 0.0
2017-Sep-24 07:19N 38°42' W 009°11'0 0.0
2017-Sep-24 06:59N 38°42' W 009°11'0 0.0
2017-Sep-24 06:14N 38°42' W 009°11'0 0.0
2017-Sep-24 03:56N 38°42' W 009°11'0 0.0
2017-Sep-22 00:58N 38°42' W 009°11'0 0.0
2017-Sep-22 00:28N 38°42' W 009°11'0 0.0
2017-Sep-21 23:18N 38°42' W 009°11'2 0.3
2017-Sep-21 17:46N 38°42' W 009°09'2 5.1
2017-Sep-21 17:24N 38°42' W 009°11'0 0.1
2017-Sep-21 16:27N 38°42' W 009°11'1 1.0
2017-Sep-21 15:34N 38°42' W 009°10'1 7.6
2017-Sep-21 15:30N 38°42' W 009°10'2 3.8
2017-Sep-21 14:59N 38°42' W 009°13'2 2.6
2017-Sep-21 14:16N 38°42' W 009°11'1 3.1
2017-Sep-21 13:50N 38°42' W 009°09'1 2.9
2017-Sep-21 13:24N 38°42' W 009°10'2 3.5
2017-Sep-21 12:49N 38°42' W 009°13'3 4.9
2017-Sep-21 12:15N 38°42' W 009°09'1 1.1
2017-Sep-21 11:37N 38°42' W 009°08'2 7.2
2017-Sep-21 11:22N 38°42' W 009°11'2 3.1
2017-Sep-21 10:48N 38°42' W 009°13'2 3.9
2017-Sep-21 10:21N 38°42' W 009°11'1 1.5
2017-Sep-21 09:37N 38°42' W 009°09'3 6.4
2017-Sep-21 09:14N 38°42' W 009°12'1 0.4
2017-Sep-21 05:30N 38°42' W 009°11'0 0.0
2017-Sep-20 18:04N 38°42' W 009°10'2 6.9
2017-Sep-20 17:48N 38°42' W 009°08'2 5.5
2017-Sep-20 17:27N 38°42' W 009°11'2 4.1
2017-Sep-20 17:00N 38°42' W 009°13'1 2.3
2017-Sep-20 16:30N 38°42' W 009°11'1 0.5
2017-Sep-20 15:10N 38°42' W 009°12'3 2.1
2017-Sep-20 13:37N 38°42' W 009°08'1 6.2
2017-Sep-20 13:28N 38°42' W 009°09'2 0.6
2017-Sep-20 10:36N 38°42' W 009°11'0 0.1
2017-Sep-20 09:16N 38°42' W 009°11'1 2.2
2017-Sep-20 08:42N 38°42' W 009°13'1 7.3
2017-Sep-20 08:31N 38°42' W 009°11'0 0.4
2017-Sep-20 07:42N 38°42' W 009°11'0 0.0
2017-Sep-20 06:47N 38°42' W 009°11'0 0.0
2017-Sep-20 06:11N 38°42' W 009°11'0 0.0
2017-Sep-20 04:26N 38°42' W 009°11'0 0.0
2017-Sep-20 03:50N 38°42' W 009°11'0 0.0
2017-Sep-20 03:11N 38°42' W 009°11'0 0.0
2017-Sep-20 02:47N 38°42' W 009°11'0 0.0
2017-Sep-20 02:29N 38°42' W 009°11'0 0.0
2017-Sep-20 01:59N 38°42' W 009°11'0 0.0
2017-Sep-19 22:34N 38°42' W 009°11'0 0.0
2017-Sep-19 20:41N 38°42' W 009°11'0 0.0
2017-Sep-19 17:59N 38°42' W 009°11'1 1.9
2017-Sep-19 17:23N 38°41' W 009°12'0 0.1
2017-Sep-19 16:13N 38°42' W 009°12'1 1.3
2017-Sep-19 15:46N 38°42' W 009°13'2 3.8
2017-Sep-19 15:18N 38°42' W 009°11'2 3.9
2017-Sep-19 14:50N 38°42' W 009°08'2 5.2
2017-Sep-19 14:30N 38°42' W 009°10'2 3.8
2017-Sep-19 14:00N 38°42' W 009°13'2 4.0
2017-Sep-19 13:27N 38°42' W 009°10'1 2.1
2017-Sep-19 12:58N 38°42' W 009°09'1 2.3
2017-Sep-19 12:26N 38°42' W 009°10'2 4.0
2017-Sep-19 11:56N 38°41' W 009°13'3 4.6
2017-Sep-19 11:19N 38°42' W 009°09'1 1.0
2017-Sep-19 10:46N 38°42' W 009°09'1 3.6
2017-Sep-19 10:29N 38°42' W 009°10'1 0.2
2017-Sep-19 06:44N 38°42' W 009°11'0 0.0
2017-Sep-19 03:59N 38°42' W 009°11'0 0.0
2017-Sep-18 17:29N 38°42' W 009°11'1 1.2
2017-Sep-18 16:41N 38°42' W 009°09'1 4.8
2017-Sep-18 16:30N 38°42' W 009°11'2 2.0
2017-Sep-18 15:40N 38°41' W 009°13'2 6.9
2017-Sep-18 15:26N 38°42' W 009°11'2 2.7
2017-Sep-18 14:46N 38°42' W 009°08'2 4.6
2017-Sep-18 14:25N 38°42' W 009°10'2 3.0
2017-Sep-18 13:48N 38°42' W 009°13'1 1.0
2017-Sep-18 12:18N 38°42' W 009°11'0 0.7
2017-Sep-18 11:38N 38°42' W 009°12'1 5.3
2017-Sep-18 11:29N 38°42' W 009°11'1 2.8
2017-Sep-18 10:57N 38°42' W 009°09'1 2.9
2017-Sep-18 10:27N 38°42' W 009°11'2 3.5
2017-Sep-18 09:59N 38°41' W 009°13'2 0.9
2017-Sep-18 08:13N 38°42' W 009°11'0 0.0
2017-Sep-18 07:49N 38°42' W 009°11'0 0.0
2017-Sep-18 07:28N 38°42' W 009°11'0 0.0
2017-Sep-18 06:49N 38°42' W 009°11'0 0.0
2017-Sep-18 06:29N 38°42' W 009°11'0 0.0
2017-Sep-18 05:49N 38°42' W 009°11'0 0.0
2017-Sep-18 05:22N 38°42' W 009°11'0 0.0
2017-Sep-18 04:12N 38°42' W 009°11'0 0.0
2017-Sep-18 03:42N 38°42' W 009°11'0 0.0
2017-Sep-18 02:06N 38°42' W 009°11'0 0.0
2017-Sep-18 02:00N 38°42' W 009°11'0 0.0
2017-Sep-18 01:30N 38°42' W 009°11'0 0.0
2017-Sep-17 23:18N 38°42' W 009°11'0 0.0
2017-Sep-17 17:55N 38°42' W 009°11'1 0.5
2017-Sep-17 16:33N 38°42' W 009°10'0 4.5
2017-Sep-17 16:29N 38°42' W 009°10'2 3.3
2017-Sep-17 15:52N 38°42' W 009°13'1 3.6
2017-Sep-17 15:28N 38°42' W 009°11'2 2.4
2017-Sep-17 14:43N 38°42' W 009°09'1 5.7
2017-Sep-17 14:30N 38°42' W 009°10'2 2.9
2017-Sep-17 13:47N 38°41' W 009°13'4 3.2
2017-Sep-17 12:40N 38°42' W 009°08'1 5.1
2017-Sep-17 12:23N 38°42' W 009°10'2 5.3
2017-Sep-17 11:59N 38°42' W 009°13'1 2.9
2017-Sep-17 11:30N 38°42' W 009°11'2 1.7
2017-Sep-17 10:35N 38°42' W 009°09'1 7.9
2017-Sep-17 10:24N 38°42' W 009°11'1 3.4
2017-Sep-17 09:58N 38°41' W 009°13'2 1.6
2017-Sep-17 08:53N 38°42' W 009°11'0 0.0
2017-Sep-17 07:44N 38°42' W 009°11'0 0.0
2017-Sep-17 07:26N 38°42' W 009°11'0 0.0
2017-Sep-17 06:59N 38°42' W 009°11'0 0.0
2017-Sep-17 06:06N 38°42' W 009°11'0 0.0
2017-Sep-17 05:48N 38°42' W 009°11'0 0.0
2017-Sep-17 05:21N 38°42' W 009°11'0 0.0
2017-Sep-17 05:00N 38°42' W 009°11'0 0.0
2017-Sep-17 03:29N 38°42' W 009°11'0 0.0
2017-Sep-17 02:05N 38°42' W 009°11'0 0.0
2017-Sep-16 17:10N 38°42' W 009°11'2 4.9
2017-Sep-16 16:45N 38°42' W 009°08'2 5.5
2017-Sep-16 16:26N 38°42' W 009°10'2 2.7
2017-Sep-16 15:41N 38°41' W 009°13'2 7.9
2017-Sep-16 15:27N 38°42' W 009°11'1 0.8
2017-Sep-16 14:32N 38°42' W 009°10'1 5.3
2017-Sep-16 14:22N 38°42' W 009°11'2 1.7
2017-Sep-16 13:27N 38°42' W 009°13'3 4.4
2017-Sep-16 12:39N 38°42' W 009°08'2 5.1
2017-Sep-16 12:19N 38°42' W 009°11'1 1.7
2017-Sep-16 11:37N 38°42' W 009°12'1 7.2
2017-Sep-16 11:29N 38°42' W 009°11'0 0.3
2017-Sep-16 10:22N 38°42' W 009°10'2 2.2
2017-Sep-16 09:29N 38°41' W 009°13'2 2.2
2017-Sep-16 08:41N 38°42' W 009°11'0 0.0
2017-Sep-16 06:37N 38°42' W 009°11'0 0.0
2017-Sep-16 06:14N 38°42' W 009°11'0 0.0
2017-Sep-16 05:44N 38°42' W 009°11'0 0.0
2017-Sep-16 05:23N 38°42' W 009°11'0 0.0
2017-Sep-16 03:53N 38°42' W 009°11'1 0.1
2017-Sep-15 17:42N 38°42' W 009°12'0 0.7
2017-Sep-15 17:20N 38°42' W 009°11'2 0.7
2017-Sep-15 14:41N 38°42' W 009°09'1 5.2
2017-Sep-15 14:29N 38°42' W 009°10'1 0.9
2017-Sep-15 12:48N 38°42' W 009°09'2 4.3
2017-Sep-15 12:22N 38°42' W 009°11'2 3.8
2017-Sep-15 11:58N 38°42' W 009°13'2 3.0
2017-Sep-15 11:21N 38°42' W 009°11'2 4.7
2017-Sep-15 10:56N 38°42' W 009°08'1 2.9
2017-Sep-15 10:28N 38°42' W 009°10'2 4.7
2017-Sep-15 09:58N 38°42' W 009°13'1 0.9
2017-Sep-15 09:23N 38°41' W 009°12'1 1.3
2017-Sep-15 08:51N 38°41' W 009°12'1 1.4
2017-Sep-15 08:29N 38°41' W 009°11'1 0.5
2017-Sep-15 06:28N 38°42' W 009°11'0 0.0
2017-Sep-15 03:54N 38°42' W 009°11'0 0.0
2017-Sep-15 00:44N 38°42' W 009°11'0 0.0
2017-Sep-14 17:58N 38°42' W 009°11'1 0.8
2017-Sep-14 17:13N 38°42' W 009°11'1 1.0
2017-Sep-14 16:38N 38°42' W 009°12'1 7.4
2017-Sep-14 16:29N 38°42' W 009°11'1 1.2
2017-Sep-14 15:31N 38°42' W 009°09'1 6.8
2017-Sep-14 15:24N 38°42' W 009°10'2 2.5
2017-Sep-14 14:39N 38°41' W 009°13'2 8.1
2017-Sep-14 14:28N 38°42' W 009°11'1 2.9
2017-Sep-14 13:57N 38°42' W 009°09'1 2.5
2017-Sep-14 13:25N 38°42' W 009°10'1 0.3
2017-Sep-14 11:35N 38°42' W 009°10'0 5.8
2017-Sep-14 11:30N 38°42' W 009°10'2 2.7
2017-Sep-14 10:46N 38°42' W 009°13'  
Track history (hours):
 
Tides and Currents Weather Stations Pressure Air Temp Water Temp Dewpoint Dewpoint Depression Visibility Wind Speed Wind Dir Waves Ship Positions

Mh2 Luar

Last reported at 2017-Sep-24 10:29 UTC. Time now 2017-Sep-24 10:39 UTC.
Position N 38°42' W 009°11'.

Type: Passenger vessel. MMSI: 263753590.

Date/timePositionNaut miles runAvg speedWind from/ knotsBaromVisibWave heightAir tempDewpointWater temp
2017-Sep-24 10:29N 38°42' W 009°11'1 2.1
2017-Sep-24 09:51N 38°42' W 009°09'2 5.0
2017-Sep-24 09:25N 38°42' W 009°12'1 1.3
2017-Sep-24 08:54N 38°42' W 009°11'0 0.5
2017-Sep-24 08:23N 38°42' W 009°11'0 0.0
2017-Sep-24 07:59N 38°42' W 009°11'0 0.0
2017-Sep-24 07:19N 38°42' W 009°11'0 0.0
2017-Sep-24 06:59N 38°42' W 009°11'0 0.0
2017-Sep-24 06:14N 38°42' W 009°11'0 0.0
2017-Sep-24 03:56N 38°42' W 009°11'0 0.0
2017-Sep-22 00:58N 38°42' W 009°11'0 0.0
2017-Sep-22 00:28N 38°42' W 009°11'0 0.0
2017-Sep-21 23:18N 38°42' W 009°11'2 0.3
2017-Sep-21 17:46N 38°42' W 009°09'2 5.1
2017-Sep-21 17:24N 38°42' W 009°11'0 0.1
2017-Sep-21 16:27N 38°42' W 009°11'1 1.0
2017-Sep-21 15:34N 38°42' W 009°10'1 7.6
2017-Sep-21 15:30N 38°42' W 009°10'2 3.8
2017-Sep-21 14:59N 38°42' W 009°13'2 2.6
2017-Sep-21 14:16N 38°42' W 009°11'1 3.1
2017-Sep-21 13:50N 38°42' W 009°09'1 2.9
2017-Sep-21 13:24N 38°42' W 009°10'2 3.5
2017-Sep-21 12:49N 38°42' W 009°13'3 4.9
2017-Sep-21 12:15N 38°42' W 009°09'1 1.1
2017-Sep-21 11:37N 38°42' W 009°08'2 7.2
2017-Sep-21 11:22N 38°42' W 009°11'2 3.1
2017-Sep-21 10:48N 38°42' W 009°13'2 3.9
2017-Sep-21 10:21N 38°42' W 009°11'1 1.5
2017-Sep-21 09:37N 38°42' W 009°09'3 6.4
2017-Sep-21 09:14N 38°42' W 009°12'1 0.4
2017-Sep-21 05:30N 38°42' W 009°11'0 0.0
2017-Sep-20 18:04N 38°42' W 009°10'2 6.9
2017-Sep-20 17:48N 38°42' W 009°08'2 5.5
2017-Sep-20 17:27N 38°42' W 009°11'2 4.1
2017-Sep-20 17:00N 38°42' W 009°13'1 2.3
2017-Sep-20 16:30N 38°42' W 009°11'1 0.5
2017-Sep-20 15:10N 38°42' W 009°12'3 2.1
2017-Sep-20 13:37N 38°42' W 009°08'1 6.2
2017-Sep-20 13:28N 38°42' W 009°09'2 0.6
2017-Sep-20 10:36N 38°42' W 009°11'0 0.1
2017-Sep-20 09:16N 38°42' W 009°11'1 2.2
2017-Sep-20 08:42N 38°42' W 009°13'1 7.3
2017-Sep-20 08:31N 38°42' W 009°11'0 0.4
2017-Sep-20 07:42N 38°42' W 009°11'0 0.0
2017-Sep-20 06:47N 38°42' W 009°11'0 0.0
2017-Sep-20 06:11N 38°42' W 009°11'0 0.0
2017-Sep-20 04:26N 38°42' W 009°11'0 0.0
2017-Sep-20 03:50N 38°42' W 009°11'0 0.0
2017-Sep-20 03:11N 38°42' W 009°11'0 0.0
2017-Sep-20 02:47N 38°42' W 009°11'0 0.0
2017-Sep-20 02:29N 38°42' W 009°11'0 0.0
2017-Sep-20 01:59N 38°42' W 009°11'0 0.0
2017-Sep-19 22:34N 38°42' W 009°11'0 0.0
2017-Sep-19 20:41N 38°42' W 009°11'0 0.0
2017-Sep-19 17:59N 38°42' W 009°11'1 1.9
2017-Sep-19 17:23N 38°41' W 009°12'0 0.1
2017-Sep-19 16:13N 38°42' W 009°12'1 1.3
2017-Sep-19 15:46N 38°42' W 009°13'2 3.8
2017-Sep-19 15:18N 38°42' W 009°11'2 3.9
2017-Sep-19 14:50N 38°42' W 009°08'2 5.2
2017-Sep-19 14:30N 38°42' W 009°10'2 3.8
2017-Sep-19 14:00N 38°42' W 009°13'2 4.0
2017-Sep-19 13:27N 38°42' W 009°10'1 2.1
2017-Sep-19 12:58N 38°42' W 009°09'1 2.3
2017-Sep-19 12:26N 38°42' W 009°10'2 4.0
2017-Sep-19 11:56N 38°41' W 009°13'3 4.6
2017-Sep-19 11:19N 38°42' W 009°09'1 1.0
2017-Sep-19 10:46N 38°42' W 009°09'1 3.6
2017-Sep-19 10:29N 38°42' W 009°10'1 0.2
2017-Sep-19 06:44N 38°42' W 009°11'0 0.0
2017-Sep-19 03:59N 38°42' W 009°11'0 0.0
2017-Sep-18 17:29N 38°42' W 009°11'1 1.2
2017-Sep-18 16:41N 38°42' W 009°09'1 4.8
2017-Sep-18 16:30N 38°42' W 009°11'2 2.0
2017-Sep-18 15:40N 38°41' W 009°13'2 6.9
2017-Sep-18 15:26N 38°42' W 009°11'2 2.7
2017-Sep-18 14:46N 38°42' W 009°08'2 4.6
2017-Sep-18 14:25N 38°42' W 009°10'2 3.0
2017-Sep-18 13:48N 38°42' W 009°13'1 1.0
2017-Sep-18 12:18N 38°42' W 009°11'0 0.7
2017-Sep-18 11:38N 38°42' W 009°12'1 5.3
2017-Sep-18 11:29N 38°42' W 009°11'1 2.8
2017-Sep-18 10:57N 38°42' W 009°09'1 2.9
2017-Sep-18 10:27N 38°42' W 009°11'2 3.5
2017-Sep-18 09:59N 38°41' W 009°13'2 0.9
2017-Sep-18 08:13N 38°42' W 009°11'0 0.0
2017-Sep-18 07:49N 38°42' W 009°11'0 0.0
2017-Sep-18 07:28N 38°42' W 009°11'0 0.0
2017-Sep-18 06:49N 38°42' W 009°11'0 0.0
2017-Sep-18 06:29N 38°42' W 009°11'0 0.0
2017-Sep-18 05:49N 38°42' W 009°11'0 0.0
2017-Sep-18 05:22N 38°42' W 009°11'0 0.0
2017-Sep-18 04:12N 38°42' W 009°11'0 0.0
2017-Sep-18 03:42N 38°42' W 009°11'0 0.0
2017-Sep-18 02:06N 38°42' W 009°11'0 0.0
2017-Sep-18 02:00N 38°42' W 009°11'0 0.0
2017-Sep-18 01:30N 38°42' W 009°11'0 0.0
2017-Sep-17 23:18N 38°42' W 009°11'0 0.0
2017-Sep-17 17:55N 38°42' W 009°11'1 0.5
2017-Sep-17 16:33N 38°42' W 009°10'0 4.5
2017-Sep-17 16:29N 38°42' W 009°10'2 3.3
2017-Sep-17 15:52N 38°42' W 009°13'1 3.6
2017-Sep-17 15:28N 38°42' W 009°11'2 2.4
2017-Sep-17 14:43N 38°42' W 009°09'1 5.7
2017-Sep-17 14:30N 38°42' W 009°10'2 2.9
2017-Sep-17 13:47N 38°41' W 009°13'4 3.2
2017-Sep-17 12:40N 38°42' W 009°08'1 5.1
2017-Sep-17 12:23N 38°42' W 009°10'2 5.3
2017-Sep-17 11:59N 38°42' W 009°13'1 2.9
2017-Sep-17 11:30N 38°42' W 009°11'2 1.7
2017-Sep-17 10:35N 38°42' W 009°09'1 7.9
2017-Sep-17 10:24N 38°42' W 009°11'1 3.4
2017-Sep-17 09:58N 38°41' W 009°13'2 1.6
2017-Sep-17 08:53N 38°42' W 009°11'0 0.0
2017-Sep-17 07:44N 38°42' W 009°11'0 0.0
2017-Sep-17 07:26N 38°42' W 009°11'0 0.0
2017-Sep-17 06:59N 38°42' W 009°11'0 0.0
2017-Sep-17 06:06N 38°42' W 009°11'0 0.0
2017-Sep-17 05:48N 38°42' W 009°11'0 0.0
2017-Sep-17 05:21N 38°42' W 009°11'0 0.0
2017-Sep-17 05:00N 38°42' W 009°11'0 0.0
2017-Sep-17 03:29N 38°42' W 009°11'0 0.0
2017-Sep-17 02:05N 38°42' W 009°11'0 0.0
2017-Sep-16 17:10N 38°42' W 009°11'2 4.9
2017-Sep-16 16:45N 38°42' W 009°08'2 5.5
2017-Sep-16 16:26N 38°42' W 009°10'2 2.7
2017-Sep-16 15:41N 38°41' W 009°13'2 7.9
2017-Sep-16 15:27N 38°42' W 009°11'1 0.8
2017-Sep-16 14:32N 38°42' W 009°10'1 5.3
2017-Sep-16 14:22N 38°42' W 009°11'2 1.7
2017-Sep-16 13:27N 38°42' W 009°13'3 4.4
2017-Sep-16 12:39N 38°42' W 009°08'2 5.1
2017-Sep-16 12:19N 38°42' W 009°11'1 1.7
2017-Sep-16 11:37N 38°42' W 009°12'1 7.2
2017-Sep-16 11:29N 38°42' W 009°11'0 0.3
2017-Sep-16 10:22N 38°42' W 009°10'2 2.2
2017-Sep-16 09:29N 38°41' W 009°13'2 2.2
2017-Sep-16 08:41N 38°42' W 009°11'0 0.0
2017-Sep-16 06:37N 38°42' W 009°11'0 0.0
2017-Sep-16 06:14N 38°42' W 009°11'0 0.0
2017-Sep-16 05:44N 38°42' W 009°11'0 0.0
2017-Sep-16 05:23N 38°42' W 009°11'0 0.0
2017-Sep-16 03:53N 38°42' W 009°11'1 0.1
2017-Sep-15 17:42N 38°42' W 009°12'0 0.7
2017-Sep-15 17:20N 38°42' W 009°11'2 0.7
2017-Sep-15 14:41N 38°42' W 009°09'1 5.2
2017-Sep-15 14:29N 38°42' W 009°10'1 0.9
2017-Sep-15 12:48N 38°42' W 009°09'2 4.3
2017-Sep-15 12:22N 38°42' W 009°11'2 3.8
2017-Sep-15 11:58N 38°42' W 009°13'2 3.0
2017-Sep-15 11:21N 38°42' W 009°11'2 4.7
2017-Sep-15 10:56N 38°42' W 009°08'1 2.9
2017-Sep-15 10:28N 38°42' W 009°10'2 4.7
2017-Sep-15 09:58N 38°42' W 009°13'1 0.9
2017-Sep-15 09:23N 38°41' W 009°12'1 1.3
2017-Sep-15 08:51N 38°41' W 009°12'1 1.4
2017-Sep-15 08:29N 38°41' W 009°11'1 0.5
2017-Sep-15 06:28N 38°42' W 009°11'0 0.0
2017-Sep-15 03:54N 38°42' W 009°11'0 0.0
2017-Sep-15 00:44N 38°42' W 009°11'0 0.0
2017-Sep-14 17:58N 38°42' W 009°11'1 0.8
2017-Sep-14 17:13N 38°42' W 009°11'1 1.0
2017-Sep-14 16:38N 38°42' W 009°12'1 7.4
2017-Sep-14 16:29N 38°42' W 009°11'1 1.2
2017-Sep-14 15:31N 38°42' W 009°09'1 6.8
2017-Sep-14 15:24N 38°42' W 009°10'2 2.5
2017-Sep-14 14:39N 38°41' W 009°13'2 8.1
2017-Sep-14 14:28N 38°42' W 009°11'1 2.9
2017-Sep-14 13:57N 38°42' W 009°09'1 2.5
2017-Sep-14 13:25N 38°42' W 009°10'1 0.3
2017-Sep-14 11:35N 38°42' W 009°10'0 5.8
2017-Sep-14 11:30N 38°42' W 009°10'2 2.7
2017-Sep-14 10:46N 38°42' W 009°13'  

Dump ship's entire track history